Please enter the email address associated with your User account. Your username will be emailed to the email address on file.

METAR TAF

[Source: ADDS]
METAR
LFCR 200300Z AUTO 12013KT CAVOK 05/02 Q1012 NOSIG =
LFCR 192300Z 2000/2024 13015KT CAVOK BECMG 2006/2008 14018G30KT TEMPO 2011/2017 14025G40KT BECMG 2020/2023 15010KT LFBA 200300Z AUTO 12009KT CAVOK 03/02 Q1010 =
LFBA 191700Z 1918/2003 12010KT CAVOK PROB30 TEMPO 2000/2003 12015G25KT LFSL 200300Z AUTO 13008KT CAVOK 05/M02 Q1010 =
LFSL 200200Z 2003/2012 14007KT CAVOK BECMG 2008/2010 15015G25KT
TAF
LFCR 192300Z 2000/2024 13015KT CAVOK BECMG 2006/2008 14018G30KT TEMPO 2011/2017 14025G40KT BECMG 2020/2023 15010KT =
LFBA 191700Z 1918/2003 12010KT CAVOK PROB30 TEMPO 2000/2003 12015G25KT =
LFSL 200200Z 2003/2012 14007KT CAVOK BECMG 2008/2010 15015G25KT =
SR / SS: 07:23 / 16:47 UTC (LFCC 2021-01-20)